sensor_id;sensor_type;location;lat;lon;timestamp;pressure;altitude;pressure_sealevel;temperature;humidity
53246;BME280;39569;51.090;-1.786;2023-03-03T00:00:35;102071.94;;;7.14;54.59
53246;BME280;39569;51.090;-1.786;2023-03-03T00:03:05;102068.78;;;7.20;53.84
53246;BME280;39569;51.090;-1.786;2023-03-03T00:05:32;102069.91;;;7.18;53.89
53246;BME280;39569;51.090;-1.786;2023-03-03T00:08:01;102071.31;;;6.88;55.02
53246;BME280;39569;51.090;-1.786;2023-03-03T00:10:28;102072.59;;;6.72;55.50
53246;BME280;39569;51.090;-1.786;2023-03-03T00:12:55;102072.66;;;6.94;54.88
53246;BME280;39569;51.090;-1.786;2023-03-03T00:15:23;102075.31;;;6.94;54.36
53246;BME280;39569;51.090;-1.786;2023-03-03T00:17:51;102080.97;;;7.01;54.84
53246;BME280;39569;51.090;-1.786;2023-03-03T00:20:34;102082.69;;;7.02;55.30
53246;BME280;39569;51.090;-1.786;2023-03-03T00:23:14;102081.47;;;7.06;54.54
53246;BME280;39569;51.090;-1.786;2023-03-03T00:25:44;102075.94;;;7.09;54.78
53246;BME280;39569;51.090;-1.786;2023-03-03T00:28:38;102078.19;;;6.91;54.91
53246;BME280;39569;51.090;-1.786;2023-03-03T00:31:14;102076.09;;;6.83;55.41
53246;BME280;39569;51.090;-1.786;2023-03-03T00:33:46;102070.81;;;6.94;55.54
53246;BME280;39569;51.090;-1.786;2023-03-03T00:36:29;102065.03;;;7.01;54.80
53246;BME280;39569;51.090;-1.786;2023-03-03T00:39:13;102067.91;;;6.86;55.11
53246;BME280;39569;51.090;-1.786;2023-03-03T00:41:43;102070.16;;;6.69;55.92
53246;BME280;39569;51.090;-1.786;2023-03-03T00:44:31;102066.59;;;6.92;55.24
53246;BME280;39569;51.090;-1.786;2023-03-03T00:47:02;102071.66;;;6.84;55.94
53246;BME280;39569;51.090;-1.786;2023-03-03T00:49:38;102067.34;;;6.94;55.08
53246;BME280;39569;51.090;-1.786;2023-03-03T00:52:11;102070.69;;;6.96;55.83
53246;BME280;39569;51.090;-1.786;2023-03-03T00:54:41;102070.00;;;7.05;55.22
53246;BME280;39569;51.090;-1.786;2023-03-03T00:57:07;102071.66;;;6.95;55.47
53246;BME280;39569;51.090;-1.786;2023-03-03T00:59:37;102069.28;;;7.03;55.25
53246;BME280;39569;51.090;-1.786;2023-03-03T01:02:04;102075.56;;;7.13;55.28
53246;BME280;39569;51.090;-1.786;2023-03-03T01:04:31;102073.41;;;7.18;55.16
53246;BME280;39569;51.090;-1.786;2023-03-03T01:06:57;102078.72;;;7.07;55.24
53246;BME280;39569;51.090;-1.786;2023-03-03T01:09:24;102079.66;;;7.17;55.35
53246;BME280;39569;51.090;-1.786;2023-03-03T01:11:53;102075.81;;;7.21;55.38
53246;BME280;39569;51.090;-1.786;2023-03-03T01:14:20;102077.75;;;7.19;55.71
53246;BME280;39569;51.090;-1.786;2023-03-03T01:16:47;102077.28;;;7.25;55.13
53246;BME280;39569;51.090;-1.786;2023-03-03T01:19:14;102074.09;;;7.20;55.57
53246;BME280;39569;51.090;-1.786;2023-03-03T01:21:41;102082.19;;;7.19;55.79
53246;BME280;39569;51.090;-1.786;2023-03-03T01:24:08;102086.91;;;7.15;55.95
53246;BME280;39569;51.090;-1.786;2023-03-03T01:26:35;102091.03;;;7.30;55.27
53246;BME280;39569;51.090;-1.786;2023-03-03T01:29:03;102099.13;;;7.51;55.88
53246;BME280;39569;51.090;-1.786;2023-03-03T01:31:30;102090.44;;;7.49;55.49
53246;BME280;39569;51.090;-1.786;2023-03-03T01:33:56;102088.13;;;7.44;55.47
53246;BME280;39569;51.090;-1.786;2023-03-03T01:36:23;102090.78;;;7.77;55.21
53246;BME280;39569;51.090;-1.786;2023-03-03T01:38:50;102085.84;;;7.62;54.94
53246;BME280;39569;51.090;-1.786;2023-03-03T01:41:17;102094.84;;;7.92;54.95
53246;BME280;39569;51.090;-1.786;2023-03-03T01:43:46;102104.06;;;8.00;54.97
53246;BME280;39569;51.090;-1.786;2023-03-03T01:46:36;102111.97;;;8.22;54.82
53246;BME280;39569;51.090;-1.786;2023-03-03T01:49:11;102109.88;;;8.47;54.16
53246;BME280;39569;51.090;-1.786;2023-03-03T01:51:44;102107.81;;;8.71;53.96
53246;BME280;39569;51.090;-1.786;2023-03-03T01:54:17;102106.91;;;8.82;53.88
53246;BME280;39569;51.090;-1.786;2023-03-03T01:56:45;102112.75;;;8.97;52.97
53246;BME280;39569;51.090;-1.786;2023-03-03T01:59:14;102122.06;;;9.02;53.06
53246;BME280;39569;51.090;-1.786;2023-03-03T02:01:44;102122.25;;;8.89;53.12
53246;BME280;39569;51.090;-1.786;2023-03-03T02:04:12;102117.09;;;9.18;52.20
53246;BME280;39569;51.090;-1.786;2023-03-03T02:06:43;102117.50;;;9.34;51.91
53246;BME280;39569;51.090;-1.786;2023-03-03T02:09:16;102119.81;;;9.28;51.55
53246;BME280;39569;51.090;-1.786;2023-03-03T02:11:50;102118.00;;;9.28;50.55
53246;BME280;39569;51.090;-1.786;2023-03-03T02:14:17;102116.50;;;9.15;51.04
53246;BME280;39569;51.090;-1.786;2023-03-03T02:16:46;102121.53;;;9.29;51.22
53246;BME280;39569;51.090;-1.786;2023-03-03T02:19:18;102112.94;;;9.46;51.00
53246;BME280;39569;51.090;-1.786;2023-03-03T02:21:47;102115.69;;;9.35;51.44
53246;BME280;39569;51.090;-1.786;2023-03-03T02:24:19;102109.97;;;9.49;51.57
53246;BME280;39569;51.090;-1.786;2023-03-03T02:26:52;102107.03;;;9.52;51.42
53246;BME280;39569;51.090;-1.786;2023-03-03T02:29:19;102106.22;;;9.51;51.61
53246;BME280;39569;51.090;-1.786;2023-03-03T02:31:45;102113.09;;;9.54;51.96
53246;BME280;39569;51.090;-1.786;2023-03-03T02:34:13;102113.69;;;9.67;51.86
53246;BME280;39569;51.090;-1.786;2023-03-03T02:36:40;102107.41;;;9.68;51.93
53246;BME280;39569;51.090;-1.786;2023-03-03T02:39:10;102104.63;;;9.88;52.42
53246;BME280;39569;51.090;-1.786;2023-03-03T02:41:41;102108.91;;;10.01;51.36
53246;BME280;39569;51.090;-1.786;2023-03-03T02:44:12;102107.13;;;10.11;51.68
53246;BME280;39569;51.090;-1.786;2023-03-03T02:46:41;102113.75;;;9.76;51.94
53246;BME280;39569;51.090;-1.786;2023-03-03T02:49:11;102107.50;;;10.06;51.94
53246;BME280;39569;51.090;-1.786;2023-03-03T02:51:38;102114.09;;;10.02;51.63
53246;BME280;39569;51.090;-1.786;2023-03-03T02:54:06;102112.09;;;9.94;51.87
53246;BME280;39569;51.090;-1.786;2023-03-03T02:56:34;102110.56;;;9.92;52.16
53246;BME280;39569;51.090;-1.786;2023-03-03T02:59:01;102111.50;;;9.81;51.57
53246;BME280;39569;51.090;-1.786;2023-03-03T03:01:30;102102.94;;;10.37;50.95
53246;BME280;39569;51.090;-1.786;2023-03-03T03:04:01;102125.91;;;10.00;51.99
53246;BME280;39569;51.090;-1.786;2023-03-03T03:06:28;102120.66;;;9.79;52.05
53246;BME280;39569;51.090;-1.786;2023-03-03T03:08:55;102117.94;;;10.19;51.22
53246;BME280;39569;51.090;-1.786;2023-03-03T03:11:22;102113.66;;;9.97;51.21
53246;BME280;39569;51.090;-1.786;2023-03-03T03:13:49;102121.72;;;10.07;51.32
53246;BME280;39569;51.090;-1.786;2023-03-03T03:16:16;102116.97;;;10.10;50.91
53246;BME280;39569;51.090;-1.786;2023-03-03T03:18:44;102121.81;;;9.96;51.68
53246;BME280;39569;51.090;-1.786;2023-03-03T03:21:12;102118.28;;;9.95;51.87
53246;BME280;39569;51.090;-1.786;2023-03-03T03:23:39;102119.84;;;9.98;51.52
53246;BME280;39569;51.090;-1.786;2023-03-03T03:26:06;102117.69;;;10.31;50.99
53246;BME280;39569;51.090;-1.786;2023-03-03T03:28:34;102117.97;;;10.28;51.05
53246;BME280;39569;51.090;-1.786;2023-03-03T03:31:02;102103.06;;;10.26;51.51
53246;BME280;39569;51.090;-1.786;2023-03-03T03:33:28;102120.09;;;10.72;50.17
53246;BME280;39569;51.090;-1.786;2023-03-03T03:35:57;102108.00;;;10.78;49.99
53246;BME280;39569;51.090;-1.786;2023-03-03T03:38:24;102111.38;;;10.80;49.77
53246;BME280;39569;51.090;-1.786;2023-03-03T03:40:51;102111.69;;;10.86;49.47
53246;BME280;39569;51.090;-1.786;2023-03-03T03:43:18;102107.44;;;10.84;49.61
53246;BME280;39569;51.090;-1.786;2023-03-03T03:45:44;102107.28;;;10.95;49.36
53246;BME280;39569;51.090;-1.786;2023-03-03T03:48:11;102110.13;;;10.84;49.76
53246;BME280;39569;51.090;-1.786;2023-03-03T03:50:38;102112.25;;;10.71;49.92
53246;BME280;39569;51.090;-1.786;2023-03-03T03:53:07;102111.19;;;11.20;49.07
53246;BME280;39569;51.090;-1.786;2023-03-03T03:55:33;102118.53;;;10.32;50.50
53246;BME280;39569;51.090;-1.786;2023-03-03T03:58:00;102110.53;;;10.89;49.37
53246;BME280;39569;51.090;-1.786;2023-03-03T04:00:27;102108.81;;;11.07;49.22
53246;BME280;39569;51.090;-1.786;2023-03-03T04:02:54;102108.72;;;10.70;49.83
53246;BME280;39569;51.090;-1.786;2023-03-03T04:05:20;102104.78;;;10.84;49.37
53246;BME280;39569;51.090;-1.786;2023-03-03T04:07:47;102101.81;;;10.87;48.89
53246;BME280;39569;51.090;-1.786;2023-03-03T04:10:15;102100.44;;;10.73;49.58
53246;BME280;39569;51.090;-1.786;2023-03-03T04:12:43;102100.41;;;10.45;50.31
53246;BME280;39569;51.090;-1.786;2023-03-03T04:15:11;102107.44;;;10.65;49.93
53246;BME280;39569;51.090;-1.786;2023-03-03T04:17:38;102096.44;;;10.97;49.69
53246;BME280;39569;51.090;-1.786;2023-03-03T04:20:06;102096.31;;;10.88;49.18
53246;BME280;39569;51.090;-1.786;2023-03-03T04:22:33;102100.56;;;10.43;50.04
53246;BME280;39569;51.090;-1.786;2023-03-03T04:25:00;102103.50;;;10.78;49.31
53246;BME280;39569;51.090;-1.786;2023-03-03T04:27:31;102099.03;;;10.79;49.79
53246;BME280;39569;51.090;-1.786;2023-03-03T04:29:58;102101.28;;;10.55;49.57
53246;BME280;39569;51.090;-1.786;2023-03-03T04:32:25;102099.72;;;10.71;49.41
53246;BME280;39569;51.090;-1.786;2023-03-03T04:34:52;102095.09;;;10.54;49.36
53246;BME280;39569;51.090;-1.786;2023-03-03T04:37:19;102100.56;;;10.72;49.18
53246;BME280;39569;51.090;-1.786;2023-03-03T04:39:45;102090.28;;;10.39;49.52
53246;BME280;39569;51.090;-1.786;2023-03-03T04:42:12;102100.41;;;10.16;50.09
53246;BME280;39569;51.090;-1.786;2023-03-03T04:44:41;102101.69;;;10.41;49.86
53246;BME280;39569;51.090;-1.786;2023-03-03T04:47:08;102101.69;;;10.41;49.93
53246;BME280;39569;51.090;-1.786;2023-03-03T04:49:34;102104.66;;;10.57;49.54
53246;BME280;39569;51.090;-1.786;2023-03-03T04:52:01;102111.13;;;10.64;49.29
53246;BME280;39569;51.090;-1.786;2023-03-03T04:54:28;102106.44;;;10.95;48.58
53246;BME280;39569;51.090;-1.786;2023-03-03T04:56:55;102108.44;;;10.54;49.30
53246;BME280;39569;51.090;-1.786;2023-03-03T04:59:22;102109.28;;;10.55;49.03
53246;BME280;39569;51.090;-1.786;2023-03-03T05:01:51;102115.75;;;10.81;49.09
53246;BME280;39569;51.090;-1.786;2023-03-03T05:04:17;102120.94;;;10.25;50.33
53246;BME280;39569;51.090;-1.786;2023-03-03T05:06:44;102112.50;;;10.77;49.09
53246;BME280;39569;51.090;-1.786;2023-03-03T05:09:11;102114.19;;;10.31;49.65
53246;BME280;39569;51.090;-1.786;2023-03-03T05:11:38;102114.63;;;10.36;49.51
53246;BME280;39569;51.090;-1.786;2023-03-03T05:14:04;102111.13;;;10.64;49.35
53246;BME280;39569;51.090;-1.786;2023-03-03T05:16:32;102113.50;;;10.38;49.63
53246;BME280;39569;51.090;-1.786;2023-03-03T05:19:00;102112.78;;;10.84;48.98
53246;BME280;39569;51.090;-1.786;2023-03-03T05:21:27;102112.47;;;11.06;48.21
53246;BME280;39569;51.090;-1.786;2023-03-03T05:23:54;102111.38;;;10.89;48.87
53246;BME280;39569;51.090;-1.786;2023-03-03T05:26:20;102104.50;;;10.49;49.72
53246;BME280;39569;51.090;-1.786;2023-03-03T05:28:47;102108.00;;;10.59;49.24
53246;BME280;39569;51.090;-1.786;2023-03-03T05:31:14;102109.72;;;10.69;48.88
53246;BME280;39569;51.090;-1.786;2023-03-03T05:33:41;102113.34;;;10.59;49.27
53246;BME280;39569;51.090;-1.786;2023-03-03T05:36:09;102107.84;;;10.89;49.29
53246;BME280;39569;51.090;-1.786;2023-03-03T05:38:37;102105.47;;;11.05;48.42
53246;BME280;39569;51.090;-1.786;2023-03-03T05:41:04;102106.34;;;10.77;48.96
53246;BME280;39569;51.090;-1.786;2023-03-03T05:43:31;102104.47;;;10.87;48.57
53246;BME280;39569;51.090;-1.786;2023-03-03T05:45:57;102104.50;;;10.68;48.67
53246;BME280;39569;51.090;-1.786;2023-03-03T05:48:25;102109.41;;;10.63;48.50
53246;BME280;39569;51.090;-1.786;2023-03-03T05:50:52;102101.00;;;10.86;48.27
53246;BME280;39569;51.090;-1.786;2023-03-03T05:53:20;102110.25;;;10.54;48.98
53246;BME280;39569;51.090;-1.786;2023-03-03T05:55:47;102106.91;;;10.33;48.96
53246;BME280;39569;51.090;-1.786;2023-03-03T05:58:14;102110.53;;;10.89;47.69
53246;BME280;39569;51.090;-1.786;2023-03-03T06:00:41;102112.25;;;10.80;48.51
53246;BME280;39569;51.090;-1.786;2023-03-03T06:03:07;102116.19;;;10.76;48.94
53246;BME280;39569;51.090;-1.786;2023-03-03T06:05:34;102113.63;;;10.37;49.56
53246;BME280;39569;51.090;-1.786;2023-03-03T06:08:01;102117.84;;;10.39;48.78
53246;BME280;39569;51.090;-1.786;2023-03-03T06:10:29;102118.97;;;10.27;49.22
53246;BME280;39569;51.090;-1.786;2023-03-03T06:12:56;102121.53;;;9.99;49.81
53246;BME280;39569;51.090;-1.786;2023-03-03T06:15:23;102120.94;;;10.35;49.06
53246;BME280;39569;51.090;-1.786;2023-03-03T06:17:50;102119.41;;;10.80;48.14
53246;BME280;39569;51.090;-1.786;2023-03-03T06:20:17;102127.00;;;10.65;48.41
53246;BME280;39569;51.090;-1.786;2023-03-03T06:22:44;102132.31;;;11.04;47.54
53246;BME280;39569;51.090;-1.786;2023-03-03T06:25:11;102123.16;;;11.16;47.29
53246;BME280;39569;51.090;-1.786;2023-03-03T06:27:39;102126.56;;;11.08;47.94
53246;BME280;39569;51.090;-1.786;2023-03-03T06:30:06;102121.25;;;10.70;48.29
53246;BME280;39569;51.090;-1.786;2023-03-03T06:32:33;102126.56;;;10.99;47.54
53246;BME280;39569;51.090;-1.786;2023-03-03T06:35:00;102121.38;;;10.68;47.78
53246;BME280;39569;51.090;-1.786;2023-03-03T06:37:27;102126.31;;;10.63;48.06
53246;BME280;39569;51.090;-1.786;2023-03-03T06:39:54;102122.34;;;10.20;48.53
53246;BME280;39569;51.090;-1.786;2023-03-03T06:42:20;102130.66;;;10.45;48.25
53246;BME280;39569;51.090;-1.786;2023-03-03T06:44:50;102132.63;;;11.01;47.14
53246;BME280;39569;51.090;-1.786;2023-03-03T06:47:17;102125.59;;;10.80;47.73
53246;BME280;39569;51.090;-1.786;2023-03-03T06:49:44;102131.34;;;11.14;47.22
53246;BME280;39569;51.090;-1.786;2023-03-03T06:52:12;102134.72;;;10.78;47.90
53246;BME280;39569;51.090;-1.786;2023-03-03T06:54:40;102139.50;;;11.03;47.13
53246;BME280;39569;51.090;-1.786;2023-03-03T06:57:15;102130.66;;;10.83;47.76
53246;BME280;39569;51.090;-1.786;2023-03-03T06:59:42;102145.41;;;10.78;47.77
53246;BME280;39569;51.090;-1.786;2023-03-03T07:02:15;102144.44;;;10.88;47.32
53246;BME280;39569;51.090;-1.786;2023-03-03T07:04:43;102136.13;;;10.53;47.82
53246;BME280;39569;51.090;-1.786;2023-03-03T07:07:16;102144.56;;;11.16;46.69
53246;BME280;39569;51.090;-1.786;2023-03-03T07:09:46;102154.00;;;10.91;47.19
53246;BME280;39569;51.090;-1.786;2023-03-03T07:12:15;102145.28;;;10.89;47.26
53246;BME280;39569;51.090;-1.786;2023-03-03T07:14:44;102149.91;;;11.16;46.87
53246;BME280;39569;51.090;-1.786;2023-03-03T07:17:14;102153.59;;;10.96;47.03
53246;BME280;39569;51.090;-1.786;2023-03-03T07:19:44;102159.19;;;10.83;47.64
53246;BME280;39569;51.090;-1.786;2023-03-03T07:22:15;102157.38;;;11.22;46.95
53246;BME280;39569;51.090;-1.786;2023-03-03T07:24:43;102158.50;;;10.90;47.21
53246;BME280;39569;51.090;-1.786;2023-03-03T07:27:13;102156.81;;;10.99;46.99
53246;BME280;39569;51.090;-1.786;2023-03-03T07:29:46;102165.53;;;10.92;47.01
53246;BME280;39569;51.090;-1.786;2023-03-03T07:32:34;102164.50;;;11.40;46.43
53246;BME280;39569;51.090;-1.786;2023-03-03T07:35:18;102174.06;;;11.33;46.55
53246;BME280;39569;51.090;-1.786;2023-03-03T07:37:50;102167.94;;;10.95;47.50
53246;BME280;39569;51.090;-1.786;2023-03-03T07:40:29;102172.31;;;11.61;46.12
53246;BME280;39569;51.090;-1.786;2023-03-03T07:42:57;102175.88;;;11.42;45.94
53246;BME280;39569;51.090;-1.786;2023-03-03T07:45:26;102182.03;;;11.62;45.99
53246;BME280;39569;51.090;-1.786;2023-03-03T07:47:59;102179.72;;;11.02;47.14
53246;BME280;39569;51.090;-1.786;2023-03-03T07:50:27;102182.69;;;11.18;46.19
53246;BME280;39569;51.090;-1.786;2023-03-03T07:52:55;102194.00;;;11.58;46.39
53246;BME280;39569;51.090;-1.786;2023-03-03T07:55:30;102192.88;;;11.70;45.66
53246;BME280;39569;51.090;-1.786;2023-03-03T07:58:15;102199.38;;;11.67;45.95
53246;BME280;39569;51.090;-1.786;2023-03-03T08:03:53;102197.03;;;11.17;46.80
53246;BME280;39569;51.090;-1.786;2023-03-03T08:06:30;102197.88;;;11.17;46.29
53246;BME280;39569;51.090;-1.786;2023-03-03T08:09:22;102198.69;;;11.46;45.80
53246;BME280;39569;51.090;-1.786;2023-03-03T08:11:52;102204.72;;;11.48;45.46
53246;BME280;39569;51.090;-1.786;2023-03-03T08:14:25;102202.59;;;11.52;45.13
53246;BME280;39569;51.090;-1.786;2023-03-03T08:16:53;102206.28;;;11.60;45.17
53246;BME280;39569;51.090;-1.786;2023-03-03T08:19:22;102205.59;;;12.05;43.99
53246;BME280;39569;51.090;-1.786;2023-03-03T08:21:49;102211.38;;;12.00;44.15
53246;BME280;39569;51.090;-1.786;2023-03-03T08:24:16;102202.44;;;11.63;44.30
53246;BME280;39569;51.090;-1.786;2023-03-03T08:26:43;102209.00;;;11.32;44.85
53246;BME280;39569;51.090;-1.786;2023-03-03T08:29:10;102217.13;;;12.05;43.99
53246;BME280;39569;51.090;-1.786;2023-03-03T08:31:37;102214.91;;;12.01;43.91
53246;BME280;39569;51.090;-1.786;2023-03-03T08:34:04;102218.19;;;11.85;43.42
53246;BME280;39569;51.090;-1.786;2023-03-03T08:36:32;102216.19;;;11.97;43.52
53246;BME280;39569;51.090;-1.786;2023-03-03T08:38:59;102226.69;;;12.35;43.39
53246;BME280;39569;51.090;-1.786;2023-03-03T08:41:25;102226.59;;;12.00;43.30
53246;BME280;39569;51.090;-1.786;2023-03-03T08:43:52;102226.94;;;11.77;43.98
53246;BME280;39569;51.090;-1.786;2023-03-03T08:46:19;102233.38;;;11.94;43.49
53246;BME280;39569;51.090;-1.786;2023-03-03T08:48:46;102226.22;;;11.85;43.74
53246;BME280;39569;51.090;-1.786;2023-03-03T08:51:13;102231.78;;;12.38;42.71
53246;BME280;39569;51.090;-1.786;2023-03-03T08:53:41;102230.38;;;12.61;42.02
53246;BME280;39569;51.090;-1.786;2023-03-03T08:56:08;102229.72;;;12.22;42.75
53246;BME280;39569;51.090;-1.786;2023-03-03T08:58:35;102227.81;;;12.42;42.82
53246;BME280;39569;51.090;-1.786;2023-03-03T09:01:02;102238.06;;;11.92;42.13
53246;BME280;39569;51.090;-1.786;2023-03-03T09:03:29;102233.56;;;12.20;42.16
53246;BME280;39569;51.090;-1.786;2023-03-03T09:05:56;102237.72;;;12.32;41.55
53246;BME280;39569;51.090;-1.786;2023-03-03T09:08:22;102240.59;;;11.84;42.46
53246;BME280;39569;51.090;-1.786;2023-03-03T09:10:51;102230.44;;;12.51;41.71
53246;BME280;39569;51.090;-1.786;2023-03-03T09:13:19;102235.13;;;12.67;41.66
53246;BME280;39569;51.090;-1.786;2023-03-03T09:15:46;102237.50;;;12.70;41.48
53246;BME280;39569;51.090;-1.786;2023-03-03T09:18:15;102245.63;;;12.60;42.08
53246;BME280;39569;51.090;-1.786;2023-03-03T09:20:43;102238.94;;;12.64;41.64
53246;BME280;39569;51.090;-1.786;2023-03-03T09:23:34;102244.84;;;13.13;41.38
53246;BME280;39569;51.090;-1.786;2023-03-03T09:26:25;102241.66;;;13.52;40.69
53246;BME280;39569;51.090;-1.786;2023-03-03T09:28:55;102245.25;;;12.46;41.07
53246;BME280;39569;51.090;-1.786;2023-03-03T09:31:25;102244.72;;;12.87;40.61
53246;BME280;39569;51.090;-1.786;2023-03-03T09:33:53;102254.25;;;12.54;40.80
53246;BME280;39569;51.090;-1.786;2023-03-03T09:36:25;102249.47;;;12.48;41.10
53246;BME280;39569;51.090;-1.786;2023-03-03T09:38:52;102240.50;;;12.67;41.27
53246;BME280;39569;51.090;-1.786;2023-03-03T09:41:45;102245.78;;;12.76;40.50
53246;BME280;39569;51.090;-1.786;2023-03-03T09:44:49;102243.47;;;12.64;41.32
53246;BME280;39569;51.090;-1.786;2023-03-03T09:47:40;102244.63;;;12.61;40.40
53246;BME280;39569;51.090;-1.786;2023-03-03T09:50:19;102244.31;;;12.64;40.84
53246;BME280;39569;51.090;-1.786;2023-03-03T09:52:57;102237.84;;;13.02;40.40
53246;BME280;39569;51.090;-1.786;2023-03-03T09:55:39;102245.13;;;12.47;41.08
53246;BME280;39569;51.090;-1.786;2023-03-03T09:58:31;102238.59;;;12.95;40.85
53246;BME280;39569;51.090;-1.786;2023-03-03T10:01:10;102241.41;;;13.03;40.12
53246;BME280;39569;51.090;-1.786;2023-03-03T10:06:37;102244.22;;;13.36;40.12
53246;BME280;39569;51.090;-1.786;2023-03-03T10:09:29;102247.84;;;13.27;40.31
53246;BME280;39569;51.090;-1.786;2023-03-03T10:12:05;102251.66;;;13.07;40.87
53246;BME280;39569;51.090;-1.786;2023-03-03T10:14:47;102250.38;;;13.29;40.56
53246;BME280;39569;51.090;-1.786;2023-03-03T10:17:39;102250.88;;;13.75;40.10
53246;BME280;39569;51.090;-1.786;2023-03-03T10:20:36;102246.03;;;13.53;40.00
53246;BME280;39569;51.090;-1.786;2023-03-03T10:23:15;102247.09;;;13.60;39.43
53246;BME280;39569;51.090;-1.786;2023-03-03T10:25:52;102251.75;;;14.10;39.92
53246;BME280;39569;51.090;-1.786;2023-03-03T10:28:46;102257.59;;;13.71;39.95
53246;BME280;39569;51.090;-1.786;2023-03-03T10:31:25;102255.78;;;14.06;39.87
53246;BME280;39569;51.090;-1.786;2023-03-03T10:34:02;102249.97;;;13.41;40.67
53246;BME280;39569;51.090;-1.786;2023-03-03T10:36:39;102260.56;;;13.25;40.95
53246;BME280;39569;51.090;-1.786;2023-03-03T10:39:31;102264.00;;;13.35;40.92
53246;BME280;39569;51.090;-1.786;2023-03-03T10:42:19;102263.00;;;13.01;41.68
53246;BME280;39569;51.090;-1.786;2023-03-03T10:45:06;102268.50;;;13.52;40.71
53246;BME280;39569;51.090;-1.786;2023-03-03T10:47:54;102263.47;;;14.01;39.96
53246;BME280;39569;51.090;-1.786;2023-03-03T10:50:34;102260.88;;;13.65;40.14
53246;BME280;39569;51.090;-1.786;2023-03-03T10:53:18;102263.75;;;13.64;39.41
53246;BME280;39569;51.090;-1.786;2023-03-03T10:55:53;102269.72;;;13.58;40.43
53246;BME280;39569;51.090;-1.786;2023-03-03T10:58:45;102273.06;;;13.34;41.08
53246;BME280;39569;51.090;-1.786;2023-03-03T11:01:23;102270.25;;;12.91;41.71
53246;BME280;39569;51.090;-1.786;2023-03-03T11:04:06;102275.34;;;13.12;40.72
53246;BME280;39569;51.090;-1.786;2023-03-03T11:06:45;102276.09;;;12.87;41.23
53246;BME280;39569;51.090;-1.786;2023-03-03T11:09:32;102275.84;;;13.68;40.79
53246;BME280;39569;51.090;-1.786;2023-03-03T11:12:11;102274.28;;;14.09;39.74
53246;BME280;39569;51.090;-1.786;2023-03-03T11:14:44;102278.47;;;13.86;39.54
53246;BME280;39569;51.090;-1.786;2023-03-03T11:17:18;102275.88;;;14.02;39.09
53246;BME280;39569;51.090;-1.786;2023-03-03T11:20:01;102273.25;;;13.41;39.54
53246;BME280;39569;51.090;-1.786;2023-03-03T11:22:41;102272.69;;;13.98;39.12
53246;BME280;39569;51.090;-1.786;2023-03-03T11:25:18;102275.91;;;14.69;38.14
53246;BME280;39569;51.090;-1.786;2023-03-03T11:28:11;102275.53;;;14.56;38.08
53246;BME280;39569;51.090;-1.786;2023-03-03T11:30:52;102273.00;;;14.54;37.26
53246;BME280;39569;51.090;-1.786;2023-03-03T11:33:31;102276.84;;;14.94;37.46
53246;BME280;39569;51.090;-1.786;2023-03-03T11:36:04;102282.44;;;14.58;37.38
53246;BME280;39569;51.090;-1.786;2023-03-03T11:38:44;102279.78;;;14.33;37.75
53246;BME280;39569;51.090;-1.786;2023-03-03T11:41:19;102286.75;;;14.43;37.69
53246;BME280;39569;51.090;-1.786;2023-03-03T11:43:52;102300.13;;;14.10;38.13
53246;BME280;39569;51.090;-1.786;2023-03-03T11:46:24;102292.53;;;14.05;38.04
53246;BME280;39569;51.090;-1.786;2023-03-03T11:48:57;102292.88;;;14.28;38.20
53246;BME280;39569;51.090;-1.786;2023-03-03T11:51:34;102287.72;;;14.34;38.33
53246;BME280;39569;51.090;-1.786;2023-03-03T11:54:09;102282.81;;;14.71;37.13
53246;BME280;39569;51.090;-1.786;2023-03-03T11:56:42;102279.88;;;14.49;37.09
53246;BME280;39569;51.090;-1.786;2023-03-03T11:59:23;102278.13;;;14.82;37.47
53246;BME280;39569;51.090;-1.786;2023-03-03T12:02:00;102286.59;;;14.19;38.42
53246;BME280;39569;51.090;-1.786;2023-03-03T12:04:33;102282.47;;;14.33;38.56
53246;BME280;39569;51.090;-1.786;2023-03-03T12:07:14;102276.53;;;15.21;36.48
53246;BME280;39569;51.090;-1.786;2023-03-03T12:09:54;102285.31;;;14.31;37.76
53246;BME280;39569;51.090;-1.786;2023-03-03T12:12:30;102281.41;;;14.26;37.85
53246;BME280;39569;51.090;-1.786;2023-03-03T12:15:07;102281.94;;;14.55;37.68
53246;BME280;39569;51.090;-1.786;2023-03-03T12:17:49;102279.75;;;14.58;36.85
53246;BME280;39569;51.090;-1.786;2023-03-03T12:20:22;102273.63;;;14.98;36.93
53246;BME280;39569;51.090;-1.786;2023-03-03T12:23:03;102271.66;;;15.08;37.07
53246;BME280;39569;51.090;-1.786;2023-03-03T12:25:35;102278.69;;;15.09;37.79
53246;BME280;39569;51.090;-1.786;2023-03-03T12:28:08;102270.41;;;14.78;38.25
53246;BME280;39569;51.090;-1.786;2023-03-03T12:31:01;102273.47;;;15.00;38.09
53246;BME280;39569;51.090;-1.786;2023-03-03T12:33:39;102267.19;;;14.83;37.16
53246;BME280;39569;51.090;-1.786;2023-03-03T12:36:21;102261.88;;;14.16;38.28
53246;BME280;39569;51.090;-1.786;2023-03-03T12:38:55;102272.41;;;14.09;38.52
53246;BME280;39569;51.090;-1.786;2023-03-03T12:41:26;102265.91;;;14.95;37.60
53246;BME280;39569;51.090;-1.786;2023-03-03T12:44:01;102264.31;;;14.01;38.47
53246;BME280;39569;51.090;-1.786;2023-03-03T12:46:41;102264.13;;;14.62;38.04
53246;BME280;39569;51.090;-1.786;2023-03-03T12:49:10;102264.38;;;14.43;38.05
53246;BME280;39569;51.090;-1.786;2023-03-03T12:51:49;102256.25;;;14.68;37.63
53246;BME280;39569;51.090;-1.786;2023-03-03T12:54:56;102267.03;;;14.09;39.06
53246;BME280;39569;51.090;-1.786;2023-03-03T12:57:28;102264.50;;;14.33;38.30
53246;BME280;39569;51.090;-1.786;2023-03-03T13:00:13;102250.66;;;14.54;38.13
53246;BME280;39569;51.090;-1.786;2023-03-03T13:02:46;102257.09;;;14.27;38.41
53246;BME280;39569;51.090;-1.786;2023-03-03T13:05:21;102256.47;;;14.08;39.08
53246;BME280;39569;51.090;-1.786;2023-03-03T13:07:55;102253.13;;;14.39;38.91
53246;BME280;39569;51.090;-1.786;2023-03-03T13:10:34;102255.97;;;14.38;39.09
53246;BME280;39569;51.090;-1.786;2023-03-03T13:13:10;102249.13;;;14.18;38.19